createdAt,value
2023-03-07T00:01:01.287Z,36.00
2023-03-07T00:03:28.551Z,36.00
2023-03-07T00:06:07.417Z,35.90
2023-03-07T00:08:34.993Z,36.00
2023-03-07T00:11:04.121Z,35.90
2023-03-07T00:13:32.507Z,36.00
2023-03-07T00:16:07.889Z,35.90
2023-03-07T00:18:35.814Z,36.00
2023-03-07T00:21:06.898Z,36.00
2023-03-07T00:23:35.373Z,35.90
2023-03-07T00:26:10.960Z,35.90
2023-03-07T00:28:38.286Z,35.90
2023-03-07T00:31:09.195Z,35.90
2023-03-07T00:33:37.247Z,35.90
2023-03-07T00:36:11.182Z,35.90
2023-03-07T00:38:38.632Z,36.00
2023-03-07T00:41:11.886Z,35.90
2023-03-07T00:43:39.780Z,36.00
2023-03-07T00:46:07.914Z,35.90
2023-03-07T00:48:37.652Z,36.00
2023-03-07T00:51:06.561Z,35.90
2023-03-07T00:53:34.641Z,35.90
2023-03-07T00:56:20.288Z,35.90
2023-03-07T00:58:48.016Z,36.00
2023-03-07T01:01:23.741Z,36.00
2023-03-07T01:03:53.921Z,36.00
2023-03-07T01:06:23.011Z,36.00
2023-03-07T01:08:50.198Z,35.90
2023-03-07T01:11:17.632Z,35.90
2023-03-07T01:13:45.047Z,36.00
2023-03-07T01:16:22.700Z,36.00
2023-03-07T01:18:53.181Z,36.00
2023-03-07T01:21:24.904Z,35.90
2023-03-07T01:23:52.605Z,35.90
2023-03-07T01:26:22.319Z,35.90
2023-03-07T01:28:51.848Z,35.90
2023-03-07T01:31:19.060Z,35.90
2023-03-07T01:33:48.546Z,35.90
2023-03-07T01:36:19.537Z,35.90
2023-03-07T01:38:48.877Z,35.90
2023-03-07T01:41:17.038Z,35.90
2023-03-07T01:43:44.638Z,35.90
2023-03-07T01:46:33.681Z,35.90
2023-03-07T01:49:11.385Z,36.50
2023-03-07T01:51:41.740Z,36.00
2023-03-07T01:54:09.740Z,36.00
2023-03-07T01:56:38.832Z,35.90
2023-03-07T01:59:07.214Z,36.00
2023-03-07T02:01:34.993Z,36.00
2023-03-07T02:04:14.159Z,36.00
2023-03-07T02:06:41.413Z,35.90
2023-03-07T02:09:14.138Z,35.90
2023-03-07T02:11:43.690Z,35.90
2023-03-07T02:14:11.286Z,36.00
2023-03-07T02:16:39.312Z,36.00
2023-03-07T02:19:22.794Z,35.90
2023-03-07T02:22:11.801Z,36.00
2023-03-07T02:25:02.851Z,36.00
2023-03-07T02:27:33.663Z,36.00
2023-03-07T02:30:00.846Z,35.90
2023-03-07T02:32:28.145Z,35.90
2023-03-07T02:34:55.274Z,36.00
2023-03-07T02:37:27.631Z,35.90
2023-03-07T02:39:56.899Z,35.90
2023-03-07T02:42:28.700Z,35.90
2023-03-07T02:45:01.765Z,35.90
2023-03-07T02:47:28.990Z,35.90
2023-03-07T02:49:56.312Z,35.90
2023-03-07T02:52:24.248Z,35.90
2023-03-07T02:54:51.348Z,35.90
2023-03-07T02:57:20.042Z,35.90
2023-03-07T02:59:47.214Z,35.90
2023-03-07T03:02:14.551Z,35.90
2023-03-07T03:04:41.873Z,35.90
2023-03-07T03:07:09.068Z,35.90
2023-03-07T03:09:37.501Z,35.90
2023-03-07T03:12:04.761Z,35.90
2023-03-07T03:14:32.602Z,35.90
2023-03-07T03:16:59.766Z,35.90
2023-03-07T03:19:28.617Z,35.90
2023-03-07T03:21:55.745Z,35.90
2023-03-07T03:24:22.852Z,35.90
2023-03-07T03:26:49.994Z,35.90
2023-03-07T03:29:17.357Z,35.80
2023-03-07T03:31:45.413Z,35.80
2023-03-07T03:34:12.597Z,35.90
2023-03-07T03:36:39.700Z,35.90
2023-03-07T03:39:11.139Z,35.90
2023-03-07T03:41:38.865Z,35.80
2023-03-07T03:44:06.149Z,35.80
2023-03-07T03:46:33.261Z,35.90
2023-03-07T03:49:00.396Z,35.80
2023-03-07T03:51:27.830Z,35.80
2023-03-07T03:53:57.707Z,35.80
2023-03-07T03:56:26.728Z,35.90
2023-03-07T03:58:56.541Z,35.80
2023-03-07T04:01:26.833Z,35.90
2023-03-07T04:03:56.186Z,35.80
2023-03-07T04:06:26.671Z,35.80
2023-03-07T04:08:54.117Z,35.80
2023-03-07T04:11:22.981Z,35.80
2023-03-07T04:13:50.700Z,35.80
2023-03-07T04:16:19.170Z,35.80
2023-03-07T04:18:46.501Z,35.90
2023-03-07T04:21:13.665Z,35.90
2023-03-07T04:23:41.098Z,35.80
2023-03-07T04:26:09.803Z,35.90
2023-03-07T04:28:46.073Z,35.90
2023-03-07T04:31:24.776Z,35.90
2023-03-07T04:33:52.643Z,35.90
2023-03-07T04:36:20.370Z,35.90
2023-03-07T04:38:48.701Z,35.90
2023-03-07T04:41:18.624Z,35.90
2023-03-07T04:43:46.025Z,35.80
2023-03-07T04:46:15.449Z,35.80
2023-03-07T04:48:42.628Z,35.80
2023-03-07T04:51:09.962Z,35.80
2023-03-07T04:53:37.077Z,35.80
2023-03-07T04:56:06.637Z,35.80
2023-03-07T04:58:34.209Z,35.80
2023-03-07T05:01:03.123Z,35.80
2023-03-07T05:03:30.631Z,36.10
2023-03-07T05:06:05.971Z,35.80
2023-03-07T05:08:34.154Z,35.80
2023-03-07T05:11:01.597Z,35.80
2023-03-07T05:13:28.719Z,35.80
2023-03-07T05:15:58.158Z,35.90
2023-03-07T05:18:26.686Z,35.90
2023-03-07T05:20:53.900Z,35.90
2023-03-07T05:23:21.795Z,35.90
2023-03-07T05:25:48.983Z,36.00
2023-03-07T05:28:18.259Z,35.90
2023-03-07T05:30:47.104Z,35.90
2023-03-07T05:33:15.279Z,35.90
2023-03-07T05:35:42.435Z,35.90
2023-03-07T05:38:09.686Z,35.70
2023-03-07T05:40:36.896Z,35.60
2023-03-07T05:43:04.213Z,35.60
2023-03-07T05:45:31.605Z,35.70
2023-03-07T05:47:58.818Z,35.70
2023-03-07T05:50:26.248Z,35.80
2023-03-07T05:52:53.523Z,35.80
2023-03-07T05:55:20.742Z,35.80
2023-03-07T05:57:48.023Z,35.80
2023-03-07T06:00:16.623Z,35.70
2023-03-07T06:02:43.914Z,35.60
2023-03-07T06:05:11.072Z,35.60
2023-03-07T06:07:38.181Z,35.60
2023-03-07T06:10:05.899Z,35.50
2023-03-07T06:12:33.094Z,35.50
2023-03-07T06:15:01.149Z,35.40
2023-03-07T06:17:28.474Z,35.40
2023-03-07T06:19:55.748Z,35.30
2023-03-07T06:22:22.951Z,35.30
2023-03-07T06:24:50.192Z,35.20
2023-03-07T06:27:17.782Z,35.20
2023-03-07T06:29:44.954Z,35.20
2023-03-07T06:32:12.117Z,35.20
2023-03-07T06:34:39.419Z,35.30
2023-03-07T06:37:06.539Z,35.30
2023-03-07T06:39:33.834Z,35.30
2023-03-07T06:42:00.962Z,35.30
2023-03-07T06:44:29.201Z,35.30
2023-03-07T06:46:56.678Z,35.40
2023-03-07T06:49:24.297Z,35.70
2023-03-07T06:51:52.363Z,36.00
2023-03-07T06:54:19.493Z,36.00
2023-03-07T06:56:46.693Z,36.00
2023-03-07T06:59:13.888Z,36.20
2023-03-07T07:01:41.246Z,36.20
2023-03-07T07:04:11.622Z,36.20
2023-03-07T07:06:38.626Z,36.00
2023-03-07T07:09:06.322Z,35.90
2023-03-07T07:11:33.613Z,35.90
2023-03-07T07:14:00.872Z,36.10
2023-03-07T07:16:29.415Z,35.90
2023-03-07T07:18:56.615Z,35.90
2023-03-07T07:21:23.798Z,36.00
2023-03-07T07:23:51.142Z,36.00
2023-03-07T07:26:18.311Z,36.00
2023-03-07T07:28:45.988Z,35.90
2023-03-07T07:31:13.168Z,35.80
2023-03-07T07:33:40.479Z,35.90
2023-03-07T07:36:08.398Z,35.90
2023-03-07T07:38:36.505Z,35.90
2023-03-07T07:41:04.816Z,35.70
2023-03-07T07:43:32.001Z,35.40
2023-03-07T07:45:59.284Z,35.40
2023-03-07T07:48:26.539Z,35.40
2023-03-07T07:50:53.693Z,35.50
2023-03-07T07:53:22.359Z,35.40
2023-03-07T07:55:49.503Z,35.40
2023-03-07T07:58:16.669Z,35.30
2023-03-07T08:00:44.327Z,35.40
2023-03-07T08:03:11.506Z,35.50
2023-03-07T08:09:46.538Z,35.60
2023-03-07T08:12:13.941Z,35.70
2023-03-07T08:14:41.170Z,35.60
2023-03-07T08:17:08.283Z,35.50
2023-03-07T08:19:35.479Z,35.40
2023-03-07T08:22:03.706Z,35.40
2023-03-07T08:24:40.696Z,35.30
2023-03-07T08:27:08.738Z,35.30
2023-03-07T08:29:36.051Z,35.20
2023-03-07T08:32:03.277Z,35.00
2023-03-07T08:34:33.273Z,35.10
2023-03-07T08:37:00.464Z,35.10
2023-03-07T08:39:27.802Z,35.10
2023-03-07T08:41:55.559Z,35.20
2023-03-07T08:44:22.675Z,35.20
2023-03-07T08:46:49.856Z,35.20
2023-03-07T08:49:17.100Z,35.20
2023-03-07T08:51:46.863Z,35.00
2023-03-07T08:54:14.148Z,34.90
2023-03-07T08:56:42.520Z,34.80
2023-03-07T08:59:09.813Z,34.70
2023-03-07T09:01:37.066Z,34.60
2023-03-07T09:04:05.224Z,34.50
2023-03-07T09:06:32.389Z,34.50
2023-03-07T09:09:00.262Z,34.40
2023-03-07T09:11:27.531Z,34.40
2023-03-07T09:13:54.790Z,34.40
2023-03-07T09:16:22.723Z,34.40
2023-03-07T09:18:50.492Z,34.30
2023-03-07T09:21:18.595Z,34.30
2023-03-07T09:23:45.697Z,34.20
2023-03-07T09:26:13.337Z,34.10
2023-03-07T09:28:40.522Z,34.10
2023-03-07T09:31:10.151Z,34.00
2023-03-07T09:33:37.847Z,34.00
2023-03-07T09:36:08.603Z,33.90
2023-03-07T09:38:36.082Z,33.90
2023-03-07T09:41:18.562Z,33.90
2023-03-07T09:44:25.716Z,34.00
2023-03-07T09:47:28.506Z,34.00
2023-03-07T09:49:56.141Z,34.10
2023-03-07T09:52:27.934Z,34.00
2023-03-07T09:55:01.346Z,33.90
2023-03-07T09:57:32.374Z,33.80
2023-03-07T10:00:06.413Z,33.80
2023-03-07T10:02:53.488Z,33.70
2023-03-07T10:05:32.598Z,33.70
2023-03-07T10:08:02.073Z,33.60
2023-03-07T10:10:41.719Z,33.60
2023-03-07T10:13:45.680Z,33.60
2023-03-07T10:16:39.380Z,33.60
2023-03-07T10:19:33.498Z,33.50
2023-03-07T10:22:17.281Z,33.50
2023-03-07T10:25:09.216Z,33.50
2023-03-07T10:27:36.686Z,33.80
2023-03-07T10:30:15.844Z,33.70
2023-03-07T10:32:54.875Z,33.60
2023-03-07T10:35:24.770Z,33.40
2023-03-07T10:38:05.409Z,33.40
2023-03-07T10:40:40.201Z,33.40
2023-03-07T10:43:07.699Z,33.60
2023-03-07T10:45:35.041Z,33.70
2023-03-07T10:48:18.686Z,33.80
2023-03-07T10:50:55.756Z,33.90
2023-03-07T10:53:27.500Z,33.80
2023-03-07T10:56:10.979Z,33.80
2023-03-07T10:58:38.828Z,33.90
2023-03-07T11:01:22.592Z,33.90
2023-03-07T11:04:05.410Z,33.70
2023-03-07T11:06:41.606Z,33.70
2023-03-07T11:09:22.815Z,33.50
2023-03-07T11:11:54.774Z,33.50
2023-03-07T11:14:22.781Z,33.30
2023-03-07T11:16:56.177Z,33.10
2023-03-07T11:19:31.752Z,33.00
2023-03-07T11:22:00.242Z,32.90
2023-03-07T11:24:30.943Z,33.00
2023-03-07T11:27:01.256Z,33.00
2023-03-07T11:29:28.939Z,33.10
2023-03-07T11:32:14.345Z,32.90
2023-03-07T11:34:59.485Z,32.90
2023-03-07T11:37:38.393Z,33.00
2023-03-07T11:40:34.665Z,32.90
2023-03-07T11:43:23.108Z,32.90
2023-03-07T11:46:04.809Z,33.00
2023-03-07T11:49:01.424Z,32.90
2023-03-07T11:52:07.453Z,33.00
2023-03-07T11:55:05.234Z,32.90
2023-03-07T11:58:12.075Z,32.90
2023-03-07T12:01:07.695Z,32.80
2023-03-07T12:04:08.261Z,32.80
2023-03-07T12:07:15.218Z,32.70
2023-03-07T12:09:56.247Z,32.80
2023-03-07T12:12:51.498Z,32.70
2023-03-07T12:15:31.155Z,32.60
2023-03-07T12:18:27.170Z,32.60
2023-03-07T12:21:32.721Z,32.80
2023-03-07T12:24:17.975Z,32.60
2023-03-07T12:27:00.132Z,32.50
2023-03-07T12:29:49.708Z,32.50
2023-03-07T12:32:23.189Z,32.50
2023-03-07T12:35:22.451Z,32.40
2023-03-07T12:38:04.256Z,32.40
2023-03-07T12:40:42.571Z,32.30
2023-03-07T12:43:21.133Z,32.40
2023-03-07T12:45:56.442Z,32.30
2023-03-07T12:48:38.338Z,32.20
2023-03-07T12:51:20.335Z,32.60
2023-03-07T12:53:55.226Z,32.50
2023-03-07T12:56:33.103Z,32.70
2023-03-07T12:59:13.051Z,32.70
2023-03-07T13:02:16.856Z,32.70
2023-03-07T13:04:44.135Z,32.90
2023-03-07T13:07:29.761Z,33.20
2023-03-07T13:09:59.929Z,32.90
2023-03-07T13:12:31.586Z,32.80
2023-03-07T13:15:07.771Z,32.70
2023-03-07T13:17:55.696Z,32.60
2023-03-07T13:20:41.699Z,32.80
2023-03-07T13:23:22.476Z,32.80
2023-03-07T13:25:56.151Z,33.00
2023-03-07T13:28:37.025Z,33.00
2023-03-07T13:31:28.379Z,32.80
2023-03-07T13:33:55.694Z,33.00
2023-03-07T13:36:38.831Z,32.80
2023-03-07T13:39:36.638Z,32.70
2023-03-07T13:42:05.368Z,32.80
2023-03-07T13:44:41.110Z,32.70
2023-03-07T13:47:43.085Z,32.60
2023-03-07T13:50:39.649Z,32.50
2023-03-07T13:53:23.658Z,32.40
2023-03-07T13:56:15.456Z,32.40
2023-03-07T13:59:07.857Z,32.50
2023-03-07T14:01:45.527Z,32.40
2023-03-07T14:04:39.001Z,32.40
2023-03-07T14:07:26.890Z,32.50
2023-03-07T14:09:58.288Z,32.60
2023-03-07T14:13:05.789Z,32.50
2023-03-07T14:16:03.556Z,32.50
2023-03-07T14:19:04.845Z,32.50
2023-03-07T14:22:04.160Z,32.70
2023-03-07T14:24:55.924Z,32.70
2023-03-07T14:27:23.437Z,32.80
2023-03-07T14:29:57.290Z,32.80
2023-03-07T14:32:32.406Z,32.80
2023-03-07T14:35:00.055Z,32.90
2023-03-07T14:37:30.153Z,33.40
2023-03-07T14:40:22.212Z,32.90
2023-03-07T14:43:27.573Z,32.80
2023-03-07T14:46:11.769Z,32.80
2023-03-07T14:49:10.765Z,33.00
2023-03-07T14:51:42.382Z,33.40
2023-03-07T14:54:16.371Z,33.40
2023-03-07T14:56:49.201Z,33.60
2023-03-07T14:59:27.949Z,33.70
2023-03-07T15:01:56.374Z,33.70
2023-03-07T15:04:32.107Z,33.80
2023-03-07T15:07:02.241Z,33.80
2023-03-07T15:09:29.876Z,33.60
2023-03-07T15:12:06.711Z,33.80
2023-03-07T15:14:47.754Z,33.70
2023-03-07T15:17:26.045Z,33.70
2023-03-07T15:19:57.963Z,33.80
2023-03-07T15:22:29.209Z,33.80
2023-03-07T15:24:57.153Z,34.40
2023-03-07T15:27:31.424Z,34.00
2023-03-07T15:30:02.340Z,33.90
2023-03-07T15:32:39.194Z,34.00
2023-03-07T15:35:18.020Z,34.00
2023-03-07T15:37:58.245Z,34.20
2023-03-07T15:40:28.799Z,34.80
2023-03-07T15:43:15.854Z,34.30
2023-03-07T15:45:46.239Z,34.40
2023-03-07T15:48:28.100Z,34.40
2023-03-07T15:50:59.186Z,34.60
2023-03-07T15:53:30.181Z,34.70
2023-03-07T15:56:00.773Z,34.80
2023-03-07T15:58:30.279Z,34.80
2023-03-07T16:01:27.030Z,35.00
2023-03-07T16:04:00.419Z,35.10
2023-03-07T16:06:47.412Z,35.40
2023-03-07T16:09:18.366Z,35.70
2023-03-07T16:11:47.298Z,35.90
2023-03-07T16:14:25.801Z,36.30
2023-03-07T16:16:56.980Z,36.80
2023-03-07T16:19:24.136Z,37.10
2023-03-07T16:21:51.508Z,37.30
2023-03-07T16:24:18.714Z,37.60
2023-03-07T16:26:47.389Z,37.70
2023-03-07T16:29:20.689Z,37.90
2023-03-07T16:31:48.424Z,38.10
2023-03-07T16:34:18.211Z,38.50
2023-03-07T16:36:47.418Z,38.80
2023-03-07T16:39:14.976Z,39.00
2023-03-07T16:41:48.289Z,39.90
2023-03-07T16:44:20.934Z,41.50
2023-03-07T16:46:59.077Z,41.50
2023-03-07T16:49:26.209Z,41.30
2023-03-07T16:52:05.080Z,41.70
2023-03-07T16:54:33.065Z,41.90
2023-03-07T16:57:01.914Z,41.70
2023-03-07T16:59:34.875Z,41.60
2023-03-07T17:02:02.481Z,41.50
2023-03-07T17:04:29.674Z,41.40
2023-03-07T17:07:04.345Z,41.30
2023-03-07T17:09:31.850Z,41.10
2023-03-07T17:11:59.442Z,41.00
2023-03-07T17:14:26.600Z,40.80
2023-03-07T17:16:53.737Z,40.60
2023-03-07T17:19:27.001Z,40.40
2023-03-07T17:21:54.442Z,40.30
2023-03-07T17:24:21.652Z,40.20
2023-03-07T17:26:49.665Z,40.10
2023-03-07T17:29:35.174Z,40.10
2023-03-07T17:32:02.610Z,40.00
2023-03-07T17:34:32.563Z,40.00
2023-03-07T17:37:00.589Z,40.00
2023-03-07T17:39:29.891Z,40.10
2023-03-07T17:41:57.925Z,40.10
2023-03-07T17:44:25.325Z,40.10
2023-03-07T17:46:53.499Z,40.10
2023-03-07T17:49:21.719Z,40.20
2023-03-07T17:51:49.385Z,40.20
2023-03-07T17:54:17.001Z,40.20
2023-03-07T17:56:46.526Z,40.20
2023-03-07T17:59:13.680Z,40.30
2023-03-07T18:01:40.963Z,40.80
2023-03-07T18:04:08.213Z,40.20
2023-03-07T18:06:37.194Z,40.30
2023-03-07T18:09:06.965Z,40.20
2023-03-07T18:11:35.379Z,40.20
2023-03-07T18:14:03.848Z,40.30
2023-03-07T18:16:31.377Z,40.30
2023-03-07T18:19:01.171Z,40.30
2023-03-07T18:21:30.602Z,40.40
2023-03-07T18:23:58.156Z,40.40
2023-03-07T18:26:25.646Z,40.50
2023-03-07T18:28:53.985Z,40.60
2023-03-07T18:31:25.175Z,40.60
2023-03-07T18:33:53.730Z,40.70
2023-03-07T18:36:23.288Z,40.70
2023-03-07T18:38:51.336Z,40.80
2023-03-07T18:41:21.874Z,40.80
2023-03-07T18:43:49.496Z,40.80
2023-03-07T18:46:19.556Z,40.90
2023-03-07T18:48:47.524Z,40.90
2023-03-07T18:51:25.358Z,40.80
2023-03-07T18:53:53.889Z,40.80
2023-03-07T18:56:21.311Z,40.70
2023-03-07T18:58:48.551Z,40.60
2023-03-07T19:01:18.916Z,40.50
2023-03-07T19:03:46.609Z,40.40
2023-03-07T19:06:14.933Z,40.30
2023-03-07T19:08:42.330Z,40.20
2023-03-07T19:11:12.888Z,40.10
2023-03-07T19:13:40.426Z,40.00
2023-03-07T19:16:17.645Z,39.90
2023-03-07T19:18:45.107Z,39.80
2023-03-07T19:21:15.232Z,39.80
2023-03-07T19:23:42.479Z,39.70
2023-03-07T19:26:13.029Z,39.70
2023-03-07T19:28:41.072Z,39.60
2023-03-07T19:31:14.249Z,39.60
2023-03-07T19:33:41.742Z,39.50
2023-03-07T19:36:12.174Z,39.50
2023-03-07T19:38:39.667Z,39.50
2023-03-07T19:41:12.045Z,39.50
2023-03-07T19:43:39.370Z,39.40
2023-03-07T19:46:08.974Z,39.30
2023-03-07T19:48:36.791Z,39.40
2023-03-07T19:51:04.634Z,39.30
2023-03-07T19:53:31.852Z,39.30
2023-03-07T19:56:12.193Z,39.30
2023-03-07T19:58:39.504Z,39.20
2023-03-07T20:01:12.093Z,39.20
2023-03-07T20:03:39.684Z,39.20
2023-03-07T20:06:08.591Z,39.20
2023-03-07T20:08:36.102Z,39.10
2023-03-07T20:11:16.519Z,39.10
2023-03-07T20:13:44.119Z,39.60
2023-03-07T20:16:11.470Z,39.10
2023-03-07T20:18:39.177Z,39.00
2023-03-07T20:21:09.175Z,39.00
2023-03-07T20:23:38.504Z,39.00
2023-03-07T20:26:15.277Z,39.00
2023-03-07T20:28:42.784Z,39.00
2023-03-07T20:31:10.655Z,38.90
2023-03-07T20:33:39.437Z,38.90
2023-03-07T20:36:16.566Z,38.90
2023-03-07T20:38:43.727Z,38.90
2023-03-07T20:41:13.733Z,38.90
2023-03-07T20:43:40.985Z,38.90
2023-03-07T20:46:13.032Z,38.90
2023-03-07T20:48:42.149Z,38.80
2023-03-07T20:51:21.388Z,38.80
2023-03-07T20:53:50.770Z,38.80
2023-03-07T20:56:18.917Z,38.80
2023-03-07T20:58:46.993Z,38.70
2023-03-07T21:01:17.201Z,38.60
2023-03-07T21:03:44.768Z,38.60
2023-03-07T21:06:11.928Z,38.60
2023-03-07T21:08:42.090Z,38.60
2023-03-07T21:11:15.256Z,38.60
2023-03-07T21:13:45.009Z,38.60
2023-03-07T21:16:21.500Z,38.60
2023-03-07T21:18:49.325Z,38.50
2023-03-07T21:21:20.151Z,38.40
2023-03-07T21:23:48.078Z,38.40
2023-03-07T21:26:18.981Z,38.40
2023-03-07T21:28:46.564Z,38.40
2023-03-07T21:31:18.440Z,38.50
2023-03-07T21:33:48.949Z,38.50
2023-03-07T21:36:16.897Z,39.00
2023-03-07T21:38:45.648Z,38.50
2023-03-07T21:41:13.894Z,38.50
2023-03-07T21:43:41.568Z,38.50
2023-03-07T21:46:11.408Z,38.40
2023-03-07T21:48:38.592Z,38.40
2023-03-07T21:51:06.380Z,38.40
2023-03-07T21:53:34.005Z,39.00
2023-03-07T21:56:06.734Z,38.40
2023-03-07T21:58:35.022Z,38.40
2023-03-07T22:01:13.045Z,38.40
2023-03-07T22:03:41.080Z,38.40
2023-03-07T22:06:13.519Z,38.40
2023-03-07T22:08:41.417Z,38.40
2023-03-07T22:11:10.446Z,38.40
2023-03-07T22:13:39.697Z,38.40
2023-03-07T22:16:13.659Z,38.30
2023-03-07T22:18:40.944Z,38.30
2023-03-07T22:21:14.251Z,38.30
2023-03-07T22:23:41.881Z,38.40
2023-03-07T22:26:11.633Z,38.30
2023-03-07T22:28:40.723Z,38.40
2023-03-07T22:31:11.087Z,38.30
2023-03-07T22:33:38.414Z,38.40
2023-03-07T22:36:07.948Z,38.30
2023-03-07T22:38:35.370Z,38.30
2023-03-07T22:41:05.850Z,38.30
2023-03-07T22:43:34.396Z,38.30
2023-03-07T22:46:02.031Z,38.30
2023-03-07T22:48:30.099Z,38.30
2023-03-07T22:50:57.913Z,38.30
2023-03-07T22:53:28.038Z,38.20
2023-03-07T22:55:55.176Z,38.30
2023-03-07T22:58:22.229Z,38.20
2023-03-07T23:00:49.324Z,38.20
2023-03-07T23:03:16.570Z,38.20
2023-03-07T23:05:44.513Z,38.20
2023-03-07T23:08:11.615Z,38.20
2023-03-07T23:10:38.930Z,38.20
2023-03-07T23:13:06.356Z,38.10
2023-03-07T23:15:33.533Z,38.10
2023-03-07T23:18:00.750Z,38.10
2023-03-07T23:20:29.177Z,38.00
2023-03-07T23:22:56.245Z,38.00
2023-03-07T23:25:23.429Z,38.00
2023-03-07T23:27:50.592Z,38.00
2023-03-07T23:30:18.085Z,38.00
2023-03-07T23:32:45.496Z,38.00
2023-03-07T23:35:12.924Z,38.00
2023-03-07T23:37:42.000Z,38.00
2023-03-07T23:40:12.211Z,38.00
2023-03-07T23:42:39.447Z,38.10
2023-03-07T23:45:07.039Z,38.00
2023-03-07T23:47:34.579Z,38.10
2023-03-07T23:50:01.952Z,38.10
2023-03-07T23:52:29.035Z,38.10
2023-03-07T23:54:56.132Z,38.10
2023-03-07T23:57:23.610Z,38.00
2023-03-07T23:59:50.908Z,38.10
